Terminal Aerodrome Forecast
Issued by NWS

Home | Current Version | Previous Version | Text Only | Print | Product List | Glossary On
Versions: 1 2 3 4 5 6 7 8 9 10 11 12 13 14 15 16 17 18 19 20 21 22 23 24 25 26 27 28 29 30
000
FTUS44 KLZK 061400 AAC
TAFADF
TAF AMD
KADF 061405Z 0614/0712 18004KT 4SM BR BKN004
     FM061600 20008KT P6SM FEW010 SCT050 BKN250
     FM061800 21010G15KT P6SM VCTS SCT030CB BKN050 BKN250
     FM062100 21010G18KT P6SM VCTS SCT030CB BKN050 BKN250=

USA.gov is the U.S. government's official web portal to all federal, state and local government web resources and services.